sensor_id;sensor_type;location;lat;lon;timestamp;temperature;humidity
19966;DHT22;10144;50.874;4.762;2022-09-13T00:00:43;20.60;99.90
19966;DHT22;10144;50.874;4.762;2022-09-13T00:03:16;20.50;99.90
19966;DHT22;10144;50.874;4.762;2022-09-13T00:05:41;20.40;99.90
19966;DHT22;10144;50.874;4.762;2022-09-13T00:08:10;20.50;99.90
19966;DHT22;10144;50.874;4.762;2022-09-13T00:13:46;20.40;99.90
19966;DHT22;10144;50.874;4.762;2022-09-13T00:16:27;20.20;99.90
19966;DHT22;10144;50.874;4.762;2022-09-13T00:18:58;20.20;99.90
19966;DHT22;10144;50.874;4.762;2022-09-13T00:21:42;20.10;99.90
19966;DHT22;10144;50.874;4.762;2022-09-13T00:24:16;20.00;99.90
19966;DHT22;10144;50.874;4.762;2022-09-13T00:26:43;19.90;99.90
19966;DHT22;10144;50.874;4.762;2022-09-13T00:29:09;19.90;99.90
19966;DHT22;10144;50.874;4.762;2022-09-13T00:31:35;19.90;99.90
19966;DHT22;10144;50.874;4.762;2022-09-13T00:34:04;19.90;99.90
19966;DHT22;10144;50.874;4.762;2022-09-13T00:36:31;19.90;99.90
19966;DHT22;10144;50.874;4.762;2022-09-13T00:38:59;19.90;99.90
19966;DHT22;10144;50.874;4.762;2022-09-13T00:41:25;20.00;99.90
19966;DHT22;10144;50.874;4.762;2022-09-13T00:43:56;20.00;99.90
19966;DHT22;10144;50.874;4.762;2022-09-13T00:49:23;20.00;99.90
19966;DHT22;10144;50.874;4.762;2022-09-13T00:52:04;19.90;99.90
19966;DHT22;10144;50.874;4.762;2022-09-13T00:57:58;19.70;99.90
19966;DHT22;10144;50.874;4.762;2022-09-13T01:00:34;19.70;99.90
19966;DHT22;10144;50.874;4.762;2022-09-13T01:03:04;19.60;99.90
19966;DHT22;10144;50.874;4.762;2022-09-13T01:05:39;19.50;99.90
19966;DHT22;10144;50.874;4.762;2022-09-13T01:08:28;19.50;99.90
19966;DHT22;10144;50.874;4.762;2022-09-13T01:10:56;19.60;99.90
19966;DHT22;10144;50.874;4.762;2022-09-13T01:13:31;19.60;99.90
19966;DHT22;10144;50.874;4.762;2022-09-13T01:15:58;19.60;99.90
19966;DHT22;10144;50.874;4.762;2022-09-13T01:18:36;19.70;99.90
19966;DHT22;10144;50.874;4.762;2022-09-13T01:30:53;19.60;99.90
19966;DHT22;10144;50.874;4.762;2022-09-13T01:39:56;19.50;99.90
19966;DHT22;10144;50.874;4.762;2022-09-13T01:51:53;19.40;99.90
19966;DHT22;10144;50.874;4.762;2022-09-13T01:57:47;19.50;99.90
19966;DHT22;10144;50.874;4.762;2022-09-13T02:03:59;19.60;99.90
19966;DHT22;10144;50.874;4.762;2022-09-13T02:06:56;19.70;99.90
19966;DHT22;10144;50.874;4.762;2022-09-13T02:09:29;19.80;99.90
19966;DHT22;10144;50.874;4.762;2022-09-13T02:12:12;19.80;99.90
19966;DHT22;10144;50.874;4.762;2022-09-13T02:15:02;19.80;99.90
19966;DHT22;10144;50.874;4.762;2022-09-13T02:17:36;19.80;99.90
19966;DHT22;10144;50.874;4.762;2022-09-13T02:20:23;19.80;99.90
19966;DHT22;10144;50.874;4.762;2022-09-13T02:23:03;19.80;99.90
19966;DHT22;10144;50.874;4.762;2022-09-13T02:25:33;19.80;99.90
19966;DHT22;10144;50.874;4.762;2022-09-13T02:28:11;19.80;99.90
19966;DHT22;10144;50.874;4.762;2022-09-13T02:30:45;19.90;99.90
19966;DHT22;10144;50.874;4.762;2022-09-13T02:33:20;19.90;99.90
19966;DHT22;10144;50.874;4.762;2022-09-13T02:36:12;20.00;99.90
19966;DHT22;10144;50.874;4.762;2022-09-13T02:41:33;20.00;99.90
19966;DHT22;10144;50.874;4.762;2022-09-13T02:50:55;20.00;99.90
19966;DHT22;10144;50.874;4.762;2022-09-13T03:03:30;19.90;99.90
19966;DHT22;10144;50.874;4.762;2022-09-13T03:09:18;19.90;99.90
19966;DHT22;10144;50.874;4.762;2022-09-13T03:22:04;20.10;99.90
19966;DHT22;10144;50.874;4.762;2022-09-13T03:47:39;20.00;99.90
19966;DHT22;10144;50.874;4.762;2022-09-13T03:53:29;20.00;99.90
19966;DHT22;10144;50.874;4.762;2022-09-13T03:59:18;19.70;99.90
19966;DHT22;10144;50.874;4.762;2022-09-13T04:05:06;19.50;99.90
19966;DHT22;10144;50.874;4.762;2022-09-13T04:10:54;19.40;99.90
19966;DHT22;10144;50.874;4.762;2022-09-13T04:16:42;19.20;99.90
19966;DHT22;10144;50.874;4.762;2022-09-13T04:32:35;19.00;99.90
19966;DHT22;10144;50.874;4.762;2022-09-13T04:35:17;19.10;99.90
19966;DHT22;10144;50.874;4.762;2022-09-13T04:38:16;19.10;99.90
19966;DHT22;10144;50.874;4.762;2022-09-13T04:47:12;19.10;99.90
19966;DHT22;10144;50.874;4.762;2022-09-13T04:49:48;19.10;99.90
19966;DHT22;10144;50.874;4.762;2022-09-13T04:55:36;19.20;99.90
19966;DHT22;10144;50.874;4.762;2022-09-13T05:04:41;19.40;99.90
19966;DHT22;10144;50.874;4.762;2022-09-13T05:17:20;19.50;99.90
19966;DHT22;10144;50.874;4.762;2022-09-13T05:20:09;19.50;99.90
19966;DHT22;10144;50.874;4.762;2022-09-13T05:32:41;19.50;99.90
19966;DHT22;10144;50.874;4.762;2022-09-13T05:35:32;19.50;99.90
19966;DHT22;10144;50.874;4.762;2022-09-13T05:41:20;19.30;99.90
19966;DHT22;10144;50.874;4.762;2022-09-13T05:47:08;19.30;99.90
19966;DHT22;10144;50.874;4.762;2022-09-13T05:52:56;19.30;99.90
19966;DHT22;10144;50.874;4.762;2022-09-13T05:55:41;19.40;99.90
19966;DHT22;10144;50.874;4.762;2022-09-13T06:04:34;19.40;99.90
19966;DHT22;10144;50.874;4.762;2022-09-13T06:10:22;19.50;99.90
19966;DHT22;10144;50.874;4.762;2022-09-13T06:16:11;19.60;99.90
19966;DHT22;10144;50.874;4.762;2022-09-13T06:21:59;19.60;99.90
19966;DHT22;10144;50.874;4.762;2022-09-13T06:27:47;19.70;99.90
19966;DHT22;10144;50.874;4.762;2022-09-13T06:33:35;19.80;99.90
19966;DHT22;10144;50.874;4.762;2022-09-13T06:39:23;19.60;99.90
19966;DHT22;10144;50.874;4.762;2022-09-13T06:48:36;19.60;99.90
19966;DHT22;10144;50.874;4.762;2022-09-13T06:54:24;19.70;99.90
19966;DHT22;10144;50.874;4.762;2022-09-13T07:00:12;19.90;99.90
19966;DHT22;10144;50.874;4.762;2022-09-13T07:06:06;20.20;99.90
19966;DHT22;10144;50.874;4.762;2022-09-13T07:15:16;20.50;99.90
19966;DHT22;10144;50.874;4.762;2022-09-13T07:17:42;20.70;99.90
19966;DHT22;10144;50.874;4.762;2022-09-13T07:20:14;20.90;99.90
19966;DHT22;10144;50.874;4.762;2022-09-13T07:22:50;21.10;99.90
19966;DHT22;10144;50.874;4.762;2022-09-13T07:25:18;21.60;99.90
19966;DHT22;10144;50.874;4.762;2022-09-13T07:27:49;22.10;99.90
19966;DHT22;10144;50.874;4.762;2022-09-13T07:33:38;23.00;99.90
19966;DHT22;10144;50.874;4.762;2022-09-13T07:39:26;24.10;99.90
19966;DHT22;10144;50.874;4.762;2022-09-13T07:45:14;24.90;99.90
19966;DHT22;10144;50.874;4.762;2022-09-13T07:48:02;25.00;99.90
19966;DHT22;10144;50.874;4.762;2022-09-13T07:53:59;24.60;99.90
19966;DHT22;10144;50.874;4.762;2022-09-13T08:02:36;23.40;99.90
19966;DHT22;10144;50.874;4.762;2022-09-13T08:08:23;23.40;99.90
19966;DHT22;10144;50.874;4.762;2022-09-13T08:14:12;24.90;99.90
19966;DHT22;10144;50.874;4.762;2022-09-13T08:16:39;25.70;99.90
19966;DHT22;10144;50.874;4.762;2022-09-13T08:19:12;26.20;99.90
19966;DHT22;10144;50.874;4.762;2022-09-13T08:21:41;26.80;99.90
19966;DHT22;10144;50.874;4.762;2022-09-13T08:24:14;27.30;99.90
19966;DHT22;10144;50.874;4.762;2022-09-13T08:26:40;27.70;99.90
19966;DHT22;10144;50.874;4.762;2022-09-13T08:29:31;27.90;99.90
19966;DHT22;10144;50.874;4.762;2022-09-13T08:31:56;28.10;99.90
19966;DHT22;10144;50.874;4.762;2022-09-13T08:34:27;28.20;99.90
19966;DHT22;10144;50.874;4.762;2022-09-13T08:36:54;28.20;99.90
19966;DHT22;10144;50.874;4.762;2022-09-13T08:39:22;28.20;99.90
19966;DHT22;10144;50.874;4.762;2022-09-13T08:42:00;28.20;99.90
19966;DHT22;10144;50.874;4.762;2022-09-13T08:44:37;27.90;99.90
19966;DHT22;10144;50.874;4.762;2022-09-13T08:50:37;27.70;99.90
19966;DHT22;10144;50.874;4.762;2022-09-13T08:53:25;27.60;99.90
19966;DHT22;10144;50.874;4.762;2022-09-13T08:56:08;27.50;99.90
19966;DHT22;10144;50.874;4.762;2022-09-13T08:58:56;27.30;99.90
19966;DHT22;10144;50.874;4.762;2022-09-13T09:07:15;26.90;99.90
19966;DHT22;10144;50.874;4.762;2022-09-13T09:10:06;26.70;99.90
19966;DHT22;10144;50.874;4.762;2022-09-13T09:12:41;26.90;99.90
19966;DHT22;10144;50.874;4.762;2022-09-13T09:15:23;27.00;99.90
19966;DHT22;10144;50.874;4.762;2022-09-13T09:18:10;27.10;99.90
19966;DHT22;10144;50.874;4.762;2022-09-13T09:21:03;27.60;99.90
19966;DHT22;10144;50.874;4.762;2022-09-13T09:24:00;28.10;99.90
19966;DHT22;10144;50.874;4.762;2022-09-13T09:26:34;28.60;99.90
19966;DHT22;10144;50.874;4.762;2022-09-13T09:29:21;28.80;99.90
19966;DHT22;10144;50.874;4.762;2022-09-13T09:40:49;28.20;99.90
19966;DHT22;10144;50.874;4.762;2022-09-13T09:43:36;28.40;99.90
19966;DHT22;10144;50.874;4.762;2022-09-13T09:46:10;28.10;99.90
19966;DHT22;10144;50.874;4.762;2022-09-13T09:49:01;28.10;99.90
19966;DHT22;10144;50.874;4.762;2022-09-13T09:51:32;28.00;99.90
19966;DHT22;10144;50.874;4.762;2022-09-13T09:54:01;27.60;99.90
19966;DHT22;10144;50.874;4.762;2022-09-13T09:56:32;27.10;99.90
19966;DHT22;10144;50.874;4.762;2022-09-13T09:59:01;27.10;99.90
19966;DHT22;10144;50.874;4.762;2022-09-13T10:01:36;26.70;99.90
19966;DHT22;10144;50.874;4.762;2022-09-13T10:04:19;26.90;99.90
19966;DHT22;10144;50.874;4.762;2022-09-13T10:07:06;27.10;99.90
19966;DHT22;10144;50.874;4.762;2022-09-13T10:09:32;27.10;99.90
19966;DHT22;10144;50.874;4.762;2022-09-13T10:12:08;27.10;99.90
19966;DHT22;10144;50.874;4.762;2022-09-13T10:14:35;27.00;99.90
19966;DHT22;10144;50.874;4.762;2022-09-13T10:17:26;27.10;99.90
19966;DHT22;10144;50.874;4.762;2022-09-13T10:20:20;27.20;99.90
19966;DHT22;10144;50.874;4.762;2022-09-13T10:23:16;27.10;99.90
19966;DHT22;10144;50.874;4.762;2022-09-13T10:26:08;27.00;99.90
19966;DHT22;10144;50.874;4.762;2022-09-13T10:29:06;26.40;99.90
19966;DHT22;10144;50.874;4.762;2022-09-13T10:31:40;26.30;99.90
19966;DHT22;10144;50.874;4.762;2022-09-13T10:34:19;26.20;99.90
19966;DHT22;10144;50.874;4.762;2022-09-13T10:37:14;26.40;99.90
19966;DHT22;10144;50.874;4.762;2022-09-13T10:40:05;26.50;99.90
19966;DHT22;10144;50.874;4.762;2022-09-13T10:42:35;26.40;99.90
19966;DHT22;10144;50.874;4.762;2022-09-13T10:45:21;26.30;99.90
19966;DHT22;10144;50.874;4.762;2022-09-13T10:47:54;26.00;99.90
19966;DHT22;10144;50.874;4.762;2022-09-13T10:50:26;25.80;99.90
19966;DHT22;10144;50.874;4.762;2022-09-13T10:52:55;25.70;99.90
19966;DHT22;10144;50.874;4.762;2022-09-13T10:57:52;25.60;99.90
19966;DHT22;10144;50.874;4.762;2022-09-13T11:06:10;25.90;99.90
19966;DHT22;10144;50.874;4.762;2022-09-13T11:16:41;25.50;99.90
19966;DHT22;10144;50.874;4.762;2022-09-13T11:19:36;25.60;99.90
19966;DHT22;10144;50.874;4.762;2022-09-13T11:28:13;26.50;99.90
19966;DHT22;10144;50.874;4.762;2022-09-13T11:55:29;27.00;99.90
19966;DHT22;10144;50.874;4.762;2022-09-13T11:58:12;26.80;99.90
19966;DHT22;10144;50.874;4.762;2022-09-13T12:00:44;26.40;99.90
19966;DHT22;10144;50.874;4.762;2022-09-13T12:03:30;26.20;99.90
19966;DHT22;10144;50.874;4.762;2022-09-13T12:06:10;26.10;99.90
19966;DHT22;10144;50.874;4.762;2022-09-13T12:08:43;26.20;99.90
19966;DHT22;10144;50.874;4.762;2022-09-13T12:11:37;26.20;99.90
19966;DHT22;10144;50.874;4.762;2022-09-13T12:14:11;26.30;99.90
19966;DHT22;10144;50.874;4.762;2022-09-13T12:16:41;26.40;99.90
19966;DHT22;10144;50.874;4.762;2022-09-13T12:22:01;26.40;99.90
19966;DHT22;10144;50.874;4.762;2022-09-13T12:24:50;26.40;99.90
19966;DHT22;10144;50.874;4.762;2022-09-13T12:30:23;26.70;99.90
19966;DHT22;10144;50.874;4.762;2022-09-13T12:32:52;26.40;99.90
19966;DHT22;10144;50.874;4.762;2022-09-13T12:35:46;26.40;99.90
19966;DHT22;10144;50.874;4.762;2022-09-13T12:49:49;25.80;99.90
19966;DHT22;10144;50.874;4.762;2022-09-13T12:52:52;25.90;99.90
19966;DHT22;10144;50.874;4.762;2022-09-13T12:56:01;26.00;99.90
19966;DHT22;10144;50.874;4.762;2022-09-13T12:58:51;26.00;99.90
19966;DHT22;10144;50.874;4.762;2022-09-13T13:01:24;25.80;99.90
19966;DHT22;10144;50.874;4.762;2022-09-13T13:06:53;25.90;99.90
19966;DHT22;10144;50.874;4.762;2022-09-13T13:12:45;25.90;99.90
19966;DHT22;10144;50.874;4.762;2022-09-13T13:17:46;25.90;99.90
19966;DHT22;10144;50.874;4.762;2022-09-13T13:33:17;25.70;99.90
19966;DHT22;10144;50.874;4.762;2022-09-13T13:35:45;25.60;99.90
19966;DHT22;10144;50.874;4.762;2022-09-13T13:44:00;25.50;99.90
19966;DHT22;10144;50.874;4.762;2022-09-13T13:46:29;25.40;99.90
19966;DHT22;10144;50.874;4.762;2022-09-13T13:54:58;25.10;99.90
19966;DHT22;10144;50.874;4.762;2022-09-13T14:00:49;25.00;99.90
19966;DHT22;10144;50.874;4.762;2022-09-13T14:03:49;24.80;99.90
19966;DHT22;10144;50.874;4.762;2022-09-13T14:06:46;24.80;99.90
19966;DHT22;10144;50.874;4.762;2022-09-13T14:19:28;24.40;99.90
19966;DHT22;10144;50.874;4.762;2022-09-13T14:27:55;24.40;99.90
19966;DHT22;10144;50.874;4.762;2022-09-13T14:30:36;24.40;99.90
19966;DHT22;10144;50.874;4.762;2022-09-13T14:33:25;24.60;99.90
19966;DHT22;10144;50.874;4.762;2022-09-13T14:36:25;24.70;99.90
19966;DHT22;10144;50.874;4.762;2022-09-13T14:39:08;24.60;99.90
19966;DHT22;10144;50.874;4.762;2022-09-13T14:41:45;24.60;99.90
19966;DHT22;10144;50.874;4.762;2022-09-13T14:48:18;24.60;99.90
19966;DHT22;10144;50.874;4.762;2022-09-13T14:53:53;24.20;99.90
19966;DHT22;10144;50.874;4.762;2022-09-13T14:56:50;23.90;99.90
19966;DHT22;10144;50.874;4.762;2022-09-13T14:59:42;23.90;99.90
19966;DHT22;10144;50.874;4.762;2022-09-13T15:02:30;24.00;99.90
19966;DHT22;10144;50.874;4.762;2022-09-13T15:04:59;24.00;99.90
19966;DHT22;10144;50.874;4.762;2022-09-13T15:10:47;24.00;99.90
19966;DHT22;10144;50.874;4.762;2022-09-13T15:16:46;23.90;99.90
19966;DHT22;10144;50.874;4.762;2022-09-13T15:26:06;23.70;99.90
19966;DHT22;10144;50.874;4.762;2022-09-13T15:31:58;23.70;99.90
19966;DHT22;10144;50.874;4.762;2022-09-13T15:34:27;23.60;99.90
19966;DHT22;10144;50.874;4.762;2022-09-13T15:39:26;23.30;99.90
19966;DHT22;10144;50.874;4.762;2022-09-13T15:41:54;23.20;99.90
19966;DHT22;10144;50.874;4.762;2022-09-13T15:44:22;23.30;99.90
19966;DHT22;10144;50.874;4.762;2022-09-13T15:46:49;23.30;99.90
19966;DHT22;10144;50.874;4.762;2022-09-13T15:49:20;23.50;99.90
19966;DHT22;10144;50.874;4.762;2022-09-13T15:51:56;23.50;99.90
19966;DHT22;10144;50.874;4.762;2022-09-13T15:54:26;23.40;99.90
19966;DHT22;10144;50.874;4.762;2022-09-13T15:56:57;23.30;99.90
19966;DHT22;10144;50.874;4.762;2022-09-13T15:59:23;23.40;99.90
19966;DHT22;10144;50.874;4.762;2022-09-13T16:01:50;23.30;99.90
19966;DHT22;10144;50.874;4.762;2022-09-13T16:04:18;23.10;99.90
19966;DHT22;10144;50.874;4.762;2022-09-13T16:06:45;23.00;99.90
19966;DHT22;10144;50.874;4.762;2022-09-13T16:09:22;22.90;99.90
19966;DHT22;10144;50.874;4.762;2022-09-13T16:11:50;23.00;99.90
19966;DHT22;10144;50.874;4.762;2022-09-13T16:14:18;22.90;99.90
19966;DHT22;10144;50.874;4.762;2022-09-13T16:16:54;22.80;99.90
19966;DHT22;10144;50.874;4.762;2022-09-13T16:19:21;22.90;99.90
19966;DHT22;10144;50.874;4.762;2022-09-13T16:21:47;22.80;99.90
19966;DHT22;10144;50.874;4.762;2022-09-13T16:24:16;22.70;99.90
19966;DHT22;10144;50.874;4.762;2022-09-13T16:26:42;22.70;99.90
19966;DHT22;10144;50.874;4.762;2022-09-13T16:29:10;22.60;99.90
19966;DHT22;10144;50.874;4.762;2022-09-13T16:31:36;22.50;99.90
19966;DHT22;10144;50.874;4.762;2022-09-13T16:34:01;22.50;99.90
19966;DHT22;10144;50.874;4.762;2022-09-13T16:36:28;22.50;99.90
19966;DHT22;10144;50.874;4.762;2022-09-13T16:38:55;22.50;99.90
19966;DHT22;10144;50.874;4.762;2022-09-13T16:41:21;22.30;99.90
19966;DHT22;10144;50.874;4.762;2022-09-13T16:43:48;22.40;99.90
19966;DHT22;10144;50.874;4.762;2022-09-13T16:46:13;22.30;99.90
19966;DHT22;10144;50.874;4.762;2022-09-13T16:48:40;22.30;99.90
19966;DHT22;10144;50.874;4.762;2022-09-13T16:51:08;22.30;99.90
19966;DHT22;10144;50.874;4.762;2022-09-13T16:53:38;22.20;99.90
19966;DHT22;10144;50.874;4.762;2022-09-13T16:56:07;22.20;99.90
19966;DHT22;10144;50.874;4.762;2022-09-13T16:58:41;22.20;99.90
19966;DHT22;10144;50.874;4.762;2022-09-13T17:01:08;22.10;99.90
19966;DHT22;10144;50.874;4.762;2022-09-13T17:03:35;22.10;99.90
19966;DHT22;10144;50.874;4.762;2022-09-13T17:06:08;22.10;99.90
19966;DHT22;10144;50.874;4.762;2022-09-13T17:08:35;22.00;99.90
19966;DHT22;10144;50.874;4.762;2022-09-13T17:11:14;21.90;99.90
19966;DHT22;10144;50.874;4.762;2022-09-13T17:13:40;21.70;99.90
19966;DHT22;10144;50.874;4.762;2022-09-13T17:16:30;21.50;99.90
19966;DHT22;10144;50.874;4.762;2022-09-13T17:19:04;21.50;99.90
19966;DHT22;10144;50.874;4.762;2022-09-13T17:21:47;21.50;99.90
19966;DHT22;10144;50.874;4.762;2022-09-13T17:24:13;21.30;99.90
19966;DHT22;10144;50.874;4.762;2022-09-13T17:30:03;21.20;99.90
19966;DHT22;10144;50.874;4.762;2022-09-13T17:58:41;20.30;99.90
19966;DHT22;10144;50.874;4.762;2022-09-13T18:04:29;20.20;99.90
19966;DHT22;10144;50.874;4.762;2022-09-13T18:07:27;20.10;99.90
19966;DHT22;10144;50.874;4.762;2022-09-13T18:10:00;20.00;99.90
19966;DHT22;10144;50.874;4.762;2022-09-13T18:16:06;20.00;99.90
19966;DHT22;10144;50.874;4.762;2022-09-13T18:35:09;19.60;99.90
19966;DHT22;10144;50.874;4.762;2022-09-13T18:41:03;19.80;99.90
19966;DHT22;10144;50.874;4.762;2022-09-13T18:50:06;19.40;99.90
19966;DHT22;10144;50.874;4.762;2022-09-13T18:55:55;19.30;99.90
19966;DHT22;10144;50.874;4.762;2022-09-13T19:01:58;19.00;99.90
19966;DHT22;10144;50.874;4.762;2022-09-13T19:04:24;18.90;99.90
19966;DHT22;10144;50.874;4.762;2022-09-13T19:07:12;18.80;99.90
19966;DHT22;10144;50.874;4.762;2022-09-13T19:13:26;19.00;99.90
19966;DHT22;10144;50.874;4.762;2022-09-13T19:16:00;19.10;99.90
19966;DHT22;10144;50.874;4.762;2022-09-13T19:21:48;19.20;99.90
19966;DHT22;10144;50.874;4.762;2022-09-13T19:24:27;19.20;99.90
19966;DHT22;10144;50.874;4.762;2022-09-13T19:30:15;19.10;99.90
19966;DHT22;10144;50.874;4.762;2022-09-13T19:36:06;18.90;99.90
19966;DHT22;10144;50.874;4.762;2022-09-13T19:38:35;18.80;99.90
19966;DHT22;10144;50.874;4.762;2022-09-13T19:41:07;18.70;99.90
19966;DHT22;10144;50.874;4.762;2022-09-13T19:50:18;18.50;99.90
19966;DHT22;10144;50.874;4.762;2022-09-13T19:52:52;18.50;99.90
19966;DHT22;10144;50.874;4.762;2022-09-13T19:55:29;18.60;99.90
19966;DHT22;10144;50.874;4.762;2022-09-13T19:58:15;18.50;99.90
19966;DHT22;10144;50.874;4.762;2022-09-13T20:00:44;18.50;99.90
19966;DHT22;10144;50.874;4.762;2022-09-13T20:13:11;18.50;99.90
19966;DHT22;10144;50.874;4.762;2022-09-13T20:15:37;18.60;99.90
19966;DHT22;10144;50.874;4.762;2022-09-13T20:18:19;18.60;99.90
19966;DHT22;10144;50.874;4.762;2022-09-13T20:21:10;18.70;99.90
19966;DHT22;10144;50.874;4.762;2022-09-13T20:26:58;18.80;99.90
19966;DHT22;10144;50.874;4.762;2022-09-13T20:29:26;18.80;99.90
19966;DHT22;10144;50.874;4.762;2022-09-13T20:31:58;18.90;99.90
19966;DHT22;10144;50.874;4.762;2022-09-13T20:34:35;18.90;99.90
19966;DHT22;10144;50.874;4.762;2022-09-13T20:37:18;18.90;99.90
19966;DHT22;10144;50.874;4.762;2022-09-13T20:39:52;18.80;99.90
19966;DHT22;10144;50.874;4.762;2022-09-13T20:42:19;18.70;99.90
19966;DHT22;10144;50.874;4.762;2022-09-13T20:45:19;18.70;99.90
19966;DHT22;10144;50.874;4.762;2022-09-13T20:47:53;18.80;99.90
19966;DHT22;10144;50.874;4.762;2022-09-13T20:50:22;18.80;99.90
19966;DHT22;10144;50.874;4.762;2022-09-13T20:53:13;18.80;99.90
19966;DHT22;10144;50.874;4.762;2022-09-13T20:55:42;18.90;99.90
19966;DHT22;10144;50.874;4.762;2022-09-13T20:58:11;18.90;99.90
19966;DHT22;10144;50.874;4.762;2022-09-13T21:00:40;18.90;99.90
19966;DHT22;10144;50.874;4.762;2022-09-13T21:03:33;18.90;99.90
19966;DHT22;10144;50.874;4.762;2022-09-13T21:06:01;18.90;99.90
19966;DHT22;10144;50.874;4.762;2022-09-13T21:08:28;18.90;99.90
19966;DHT22;10144;50.874;4.762;2022-09-13T21:11:20;18.90;99.90
19966;DHT22;10144;50.874;4.762;2022-09-13T21:14:02;19.00;99.90
19966;DHT22;10144;50.874;4.762;2022-09-13T21:16:32;19.00;99.90
19966;DHT22;10144;50.874;4.762;2022-09-13T21:19:03;19.00;99.90
19966;DHT22;10144;50.874;4.762;2022-09-13T21:21:52;19.10;99.90
19966;DHT22;10144;50.874;4.762;2022-09-13T21:24:44;19.10;99.90
19966;DHT22;10144;50.874;4.762;2022-09-13T21:27:15;19.20;99.90
19966;DHT22;10144;50.874;4.762;2022-09-13T21:30:03;19.30;99.90
19966;DHT22;10144;50.874;4.762;2022-09-13T21:32:48;19.30;99.90
19966;DHT22;10144;50.874;4.762;2022-09-13T21:35:35;19.40;99.90
19966;DHT22;10144;50.874;4.762;2022-09-13T21:38:10;19.40;99.90
19966;DHT22;10144;50.874;4.762;2022-09-13T21:40:36;19.50;99.90
19966;DHT22;10144;50.874;4.762;2022-09-13T21:49:09;19.50;99.90
19966;DHT22;10144;50.874;4.762;2022-09-13T21:54:43;19.40;99.90
19966;DHT22;10144;50.874;4.762;2022-09-13T21:57:14;19.40;99.90
19966;DHT22;10144;50.874;4.762;2022-09-13T21:59:49;19.50;99.90
19966;DHT22;10144;50.874;4.762;2022-09-13T22:02:18;19.40;99.90
19966;DHT22;10144;50.874;4.762;2022-09-13T22:04:43;19.50;99.90
19966;DHT22;10144;50.874;4.762;2022-09-13T22:07:09;19.40;99.90
19966;DHT22;10144;50.874;4.762;2022-09-13T22:09:34;19.40;99.90
19966;DHT22;10144;50.874;4.762;2022-09-13T22:12:01;19.40;99.90
19966;DHT22;10144;50.874;4.762;2022-09-13T22:14:27;19.30;99.90
19966;DHT22;10144;50.874;4.762;2022-09-13T22:16:56;19.30;99.90
19966;DHT22;10144;50.874;4.762;2022-09-13T22:19:25;19.30;99.90
19966;DHT22;10144;50.874;4.762;2022-09-13T22:22:00;19.40;99.90
19966;DHT22;10144;50.874;4.762;2022-09-13T22:24:44;19.50;99.90
19966;DHT22;10144;50.874;4.762;2022-09-13T22:27:18;19.50;99.90
19966;DHT22;10144;50.874;4.762;2022-09-13T22:29:43;19.50;99.90
19966;DHT22;10144;50.874;4.762;2022-09-13T22:32:14;19.50;99.90
19966;DHT22;10144;50.874;4.762;2022-09-13T22:34:53;19.50;99.90
19966;DHT22;10144;50.874;4.762;2022-09-13T22:37:20;19.50;99.90
19966;DHT22;10144;50.874;4.762;2022-09-13T22:39:49;19.60;99.90
19966;DHT22;10144;50.874;4.762;2022-09-13T22:42:22;19.60;99.90
19966;DHT22;10144;50.874;4.762;2022-09-13T22:44:54;19.60;99.90
19966;DHT22;10144;50.874;4.762;2022-09-13T22:47:23;19.60;99.90
19966;DHT22;10144;50.874;4.762;2022-09-13T22:49:55;19.60;99.90
19966;DHT22;10144;50.874;4.762;2022-09-13T22:52:21;19.60;99.90
19966;DHT22;10144;50.874;4.762;2022-09-13T22:54:47;19.60;99.90
19966;DHT22;10144;50.874;4.762;2022-09-13T22:57:17;19.60;99.90
19966;DHT22;10144;50.874;4.762;2022-09-13T22:59:45;19.60;99.90
19966;DHT22;10144;50.874;4.762;2022-09-13T23:02:14;19.60;99.90
19966;DHT22;10144;50.874;4.762;2022-09-13T23:07:09;19.50;99.90
19966;DHT22;10144;50.874;4.762;2022-09-13T23:09:37;19.40;99.90
19966;DHT22;10144;50.874;4.762;2022-09-13T23:12:05;19.40;99.90
19966;DHT22;10144;50.874;4.762;2022-09-13T23:14:33;19.30;99.90
19966;DHT22;10144;50.874;4.762;2022-09-13T23:17:03;19.20;99.90
19966;DHT22;10144;50.874;4.762;2022-09-13T23:19:32;19.20;99.90
19966;DHT22;10144;50.874;4.762;2022-09-13T23:21:57;19.20;99.90
19966;DHT22;10144;50.874;4.762;2022-09-13T23:24:37;19.00;99.90
19966;DHT22;10144;50.874;4.762;2022-09-13T23:27:09;19.00;99.90
19966;DHT22;10144;50.874;4.762;2022-09-13T23:29:35;18.80;99.90
19966;DHT22;10144;50.874;4.762;2022-09-13T23:32:05;18.70;99.90
19966;DHT22;10144;50.874;4.762;2022-09-13T23:34:36;18.70;99.90
19966;DHT22;10144;50.874;4.762;2022-09-13T23:37:09;18.60;99.90
19966;DHT22;10144;50.874;4.762;2022-09-13T23:39:51;18.50;99.90
19966;DHT22;10144;50.874;4.762;2022-09-13T23:42:17;18.40;99.90
19966;DHT22;10144;50.874;4.762;2022-09-13T23:44:44;18.40;99.90
19966;DHT22;10144;50.874;4.762;2022-09-13T23:47:10;18.40;99.90
19966;DHT22;10144;50.874;4.762;2022-09-13T23:49:37;18.20;99.90
19966;DHT22;10144;50.874;4.762;2022-09-13T23:52:10;18.20;99.90
19966;DHT22;10144;50.874;4.762;2022-09-13T23:54:42;18.20;99.90
19966;DHT22;10144;50.874;4.762;2022-09-13T23:57:10;18.10;99.90
19966;DHT22;10144;50.874;4.762;2022-09-13T23:59:38;18.00;99.90
